sensor_id;sensor_type;location;lat;lon;timestamp;temperature;humidity
336;DHT22;156;48.738;9.228;2023-01-19T00:00:28;-2.70;22.10
336;DHT22;156;48.738;9.228;2023-01-19T00:02:55;-2.70;22.30
336;DHT22;156;48.738;9.228;2023-01-19T00:05:22;-2.70;22.10
336;DHT22;156;48.738;9.228;2023-01-19T00:07:49;-2.70;22.30
336;DHT22;156;48.738;9.228;2023-01-19T00:10:16;-2.70;22.40
336;DHT22;156;48.738;9.228;2023-01-19T00:12:43;-2.70;21.50
336;DHT22;156;48.738;9.228;2023-01-19T00:15:10;-2.60;20.90
336;DHT22;156;48.738;9.228;2023-01-19T00:17:39;-2.60;20.60
336;DHT22;156;48.738;9.228;2023-01-19T00:20:08;-2.70;20.40
336;DHT22;156;48.738;9.228;2023-01-19T00:22:35;-2.70;19.50
336;DHT22;156;48.738;9.228;2023-01-19T00:25:02;-2.70;20.10
336;DHT22;156;48.738;9.228;2023-01-19T00:27:29;-2.70;19.50
336;DHT22;156;48.738;9.228;2023-01-19T00:29:59;-2.70;21.70
336;DHT22;156;48.738;9.228;2023-01-19T00:32:26;-2.80;23.30
336;DHT22;156;48.738;9.228;2023-01-19T00:34:55;-2.80;22.60
336;DHT22;156;48.738;9.228;2023-01-19T00:37:21;-2.80;22.10
336;DHT22;156;48.738;9.228;2023-01-19T00:39:48;-2.80;19.40
336;DHT22;156;48.738;9.228;2023-01-19T00:42:15;-2.90;22.00
336;DHT22;156;48.738;9.228;2023-01-19T00:45:00;-2.90;22.40
336;DHT22;156;48.738;9.228;2023-01-19T00:47:27;-2.90;23.80
336;DHT22;156;48.738;9.228;2023-01-19T00:49:55;-2.90;22.70
336;DHT22;156;48.738;9.228;2023-01-19T00:52:22;-2.80;21.70
336;DHT22;156;48.738;9.228;2023-01-19T00:54:49;-2.80;21.40
336;DHT22;156;48.738;9.228;2023-01-19T00:57:16;-2.90;21.70
336;DHT22;156;48.738;9.228;2023-01-19T00:59:43;-2.90;21.60
336;DHT22;156;48.738;9.228;2023-01-19T01:02:10;-2.90;22.20
336;DHT22;156;48.738;9.228;2023-01-19T01:04:37;-2.90;22.30
336;DHT22;156;48.738;9.228;2023-01-19T01:07:06;-2.90;22.10
336;DHT22;156;48.738;9.228;2023-01-19T01:09:32;-2.90;21.80
336;DHT22;156;48.738;9.228;2023-01-19T01:11:59;-2.90;20.50
336;DHT22;156;48.738;9.228;2023-01-19T01:14:26;-2.80;20.90
336;DHT22;156;48.738;9.228;2023-01-19T01:16:53;-2.90;18.80
336;DHT22;156;48.738;9.228;2023-01-19T01:19:20;-2.80;18.40
336;DHT22;156;48.738;9.228;2023-01-19T01:21:47;-2.80;19.10
336;DHT22;156;48.738;9.228;2023-01-19T01:24:17;-2.90;18.30
336;DHT22;156;48.738;9.228;2023-01-19T01:26:45;-2.80;18.30
336;DHT22;156;48.738;9.228;2023-01-19T01:29:12;-2.90;15.30
336;DHT22;156;48.738;9.228;2023-01-19T01:31:39;-2.90;15.90
336;DHT22;156;48.738;9.228;2023-01-19T01:34:06;-2.90;17.40
336;DHT22;156;48.738;9.228;2023-01-19T01:36:33;-3.00;18.70
336;DHT22;156;48.738;9.228;2023-01-19T01:39:00;-3.00;18.90
336;DHT22;156;48.738;9.228;2023-01-19T01:41:29;-3.10;21.40
336;DHT22;156;48.738;9.228;2023-01-19T01:43:56;-3.00;21.10
336;DHT22;156;48.738;9.228;2023-01-19T01:46:27;-3.10;21.10
336;DHT22;156;48.738;9.228;2023-01-19T01:48:58;-3.00;21.40
336;DHT22;156;48.738;9.228;2023-01-19T01:51:29;-3.00;20.70
336;DHT22;156;48.738;9.228;2023-01-19T01:54:05;-2.90;18.40
336;DHT22;156;48.738;9.228;2023-01-19T01:56:41;-3.00;15.50
336;DHT22;156;48.738;9.228;2023-01-19T01:59:11;-3.10;17.60
336;DHT22;156;48.738;9.228;2023-01-19T02:01:50;-3.20;18.50
336;DHT22;156;48.738;9.228;2023-01-19T02:04:36;-3.20;22.10
336;DHT22;156;48.738;9.228;2023-01-19T02:07:03;-3.20;22.30
336;DHT22;156;48.738;9.228;2023-01-19T02:09:48;-3.20;24.40
336;DHT22;156;48.738;9.228;2023-01-19T02:12:34;-3.20;25.10
336;DHT22;156;48.738;9.228;2023-01-19T02:15:19;-3.20;25.30
336;DHT22;156;48.738;9.228;2023-01-19T02:17:46;-3.20;25.70
336;DHT22;156;48.738;9.228;2023-01-19T02:20:14;-3.20;24.30
336;DHT22;156;48.738;9.228;2023-01-19T02:22:45;-3.20;22.60
336;DHT22;156;48.738;9.228;2023-01-19T02:25:15;-3.20;23.20
336;DHT22;156;48.738;9.228;2023-01-19T02:27:44;-2.90;22.70
336;DHT22;156;48.738;9.228;2023-01-19T02:30:12;-3.20;22.60
336;DHT22;156;48.738;9.228;2023-01-19T02:32:41;-3.20;22.30
336;DHT22;156;48.738;9.228;2023-01-19T02:35:09;-3.20;22.40
336;DHT22;156;48.738;9.228;2023-01-19T02:37:37;-3.20;22.40
336;DHT22;156;48.738;9.228;2023-01-19T02:40:08;-3.30;24.70
336;DHT22;156;48.738;9.228;2023-01-19T02:42:40;-3.30;24.90
336;DHT22;156;48.738;9.228;2023-01-19T02:45:10;-3.30;25.50
336;DHT22;156;48.738;9.228;2023-01-19T02:47:41;-3.30;26.20
336;DHT22;156;48.738;9.228;2023-01-19T02:50:40;-3.40;27.00
336;DHT22;156;48.738;9.228;2023-01-19T02:59:22;-3.30;28.70
336;DHT22;156;48.738;9.228;2023-01-19T03:02:04;-3.30;27.10
336;DHT22;156;48.738;9.228;2023-01-19T03:04:43;-3.40;28.40
336;DHT22;156;48.738;9.228;2023-01-19T03:07:19;-3.40;28.20
336;DHT22;156;48.738;9.228;2023-01-19T03:09:52;-3.40;28.50
336;DHT22;156;48.738;9.228;2023-01-19T03:12:25;-3.40;26.80
336;DHT22;156;48.738;9.228;2023-01-19T03:15:01;-3.30;26.10
336;DHT22;156;48.738;9.228;2023-01-19T03:17:31;-3.30;25.50
336;DHT22;156;48.738;9.228;2023-01-19T03:19:58;-3.30;22.90
336;DHT22;156;48.738;9.228;2023-01-19T03:22:28;-3.30;22.10
336;DHT22;156;48.738;9.228;2023-01-19T03:24:58;-3.30;18.60
336;DHT22;156;48.738;9.228;2023-01-19T03:27:28;-3.30;18.10
336;DHT22;156;48.738;9.228;2023-01-19T03:29:59;-3.30;18.10
336;DHT22;156;48.738;9.228;2023-01-19T03:32:29;-3.40;18.90
336;DHT22;156;48.738;9.228;2023-01-19T03:34:59;-3.40;19.70
336;DHT22;156;48.738;9.228;2023-01-19T03:37:29;-3.40;20.60
336;DHT22;156;48.738;9.228;2023-01-19T03:39:57;-3.40;21.40
336;DHT22;156;48.738;9.228;2023-01-19T03:42:24;-3.40;21.00
336;DHT22;156;48.738;9.228;2023-01-19T03:44:54;-3.50;21.80
336;DHT22;156;48.738;9.228;2023-01-19T03:47:24;-3.50;22.00
336;DHT22;156;48.738;9.228;2023-01-19T03:49:52;-3.50;22.00
336;DHT22;156;48.738;9.228;2023-01-19T03:52:26;-3.50;24.20
336;DHT22;156;48.738;9.228;2023-01-19T03:54:54;-3.50;25.60
336;DHT22;156;48.738;9.228;2023-01-19T03:57:21;-3.60;26.20
336;DHT22;156;48.738;9.228;2023-01-19T03:59:48;-3.60;27.30
336;DHT22;156;48.738;9.228;2023-01-19T04:02:15;-3.60;28.50
336;DHT22;156;48.738;9.228;2023-01-19T04:04:43;-3.70;29.60
336;DHT22;156;48.738;9.228;2023-01-19T04:07:10;-3.60;30.10
336;DHT22;156;48.738;9.228;2023-01-19T04:09:37;-3.60;30.00
336;DHT22;156;48.738;9.228;2023-01-19T04:12:05;-3.60;29.20
336;DHT22;156;48.738;9.228;2023-01-19T04:14:32;-3.70;29.70
336;DHT22;156;48.738;9.228;2023-01-19T04:16:59;-3.70;29.90
336;DHT22;156;48.738;9.228;2023-01-19T04:19:26;-3.60;32.40
336;DHT22;156;48.738;9.228;2023-01-19T04:21:54;-3.70;32.40
336;DHT22;156;48.738;9.228;2023-01-19T04:24:21;-3.60;33.40
336;DHT22;156;48.738;9.228;2023-01-19T04:26:50;-3.60;29.70
336;DHT22;156;48.738;9.228;2023-01-19T04:29:18;-3.60;30.50
336;DHT22;156;48.738;9.228;2023-01-19T04:31:45;-3.60;29.40
336;DHT22;156;48.738;9.228;2023-01-19T04:34:12;-3.60;29.50
336;DHT22;156;48.738;9.228;2023-01-19T04:36:39;-3.60;29.60
336;DHT22;156;48.738;9.228;2023-01-19T04:39:07;-3.60;31.40
336;DHT22;156;48.738;9.228;2023-01-19T04:41:34;-3.50;29.70
336;DHT22;156;48.738;9.228;2023-01-19T04:44:02;-3.50;29.20
336;DHT22;156;48.738;9.228;2023-01-19T04:46:29;-3.60;28.60
336;DHT22;156;48.738;9.228;2023-01-19T04:48:56;-3.60;29.30
336;DHT22;156;48.738;9.228;2023-01-19T04:51:23;-3.60;29.50
336;DHT22;156;48.738;9.228;2023-01-19T04:53:50;-3.70;29.60
336;DHT22;156;48.738;9.228;2023-01-19T04:56:18;-3.70;33.30
336;DHT22;156;48.738;9.228;2023-01-19T04:58:45;-3.70;30.00
336;DHT22;156;48.738;9.228;2023-01-19T05:01:12;-3.60;30.10
336;DHT22;156;48.738;9.228;2023-01-19T05:03:39;-3.60;29.40
336;DHT22;156;48.738;9.228;2023-01-19T05:06:06;-3.60;28.10
336;DHT22;156;48.738;9.228;2023-01-19T05:08:57;-3.60;28.50
336;DHT22;156;48.738;9.228;2023-01-19T05:15:03;-3.60;27.40
336;DHT22;156;48.738;9.228;2023-01-19T05:24:26;-2.40;25.70
336;DHT22;156;48.738;9.228;2023-01-19T05:27:46;-3.30;23.40
336;DHT22;156;48.738;9.228;2023-01-19T05:30:56;-3.50;23.50
336;DHT22;156;48.738;9.228;2023-01-19T05:40:19;-4.00;17.60
336;DHT22;156;48.738;9.228;2023-01-19T05:42:51;-3.60;21.00
336;DHT22;156;48.738;9.228;2023-01-19T05:45:25;-2.10;20.00
336;DHT22;156;48.738;9.228;2023-01-19T05:47:55;-2.20;19.70
336;DHT22;156;48.738;9.228;2023-01-19T05:50:24;-1.00;20.40
336;DHT22;156;48.738;9.228;2023-01-19T05:53:10;-0.60;20.40
336;DHT22;156;48.738;9.228;2023-01-19T05:55:37;-3.50;17.30
336;DHT22;156;48.738;9.228;2023-01-19T05:58:05;-1.50;23.20
336;DHT22;156;48.738;9.228;2023-01-19T06:00:41;-2.60;21.20
336;DHT22;156;48.738;9.228;2023-01-19T06:03:08;-3.50;20.40
336;DHT22;156;48.738;9.228;2023-01-19T06:05:35;-3.50;19.40
336;DHT22;156;48.738;9.228;2023-01-19T06:08:15;-3.70;19.60
336;DHT22;156;48.738;9.228;2023-01-19T06:10:50;-1.20;19.30
336;DHT22;156;48.738;9.228;2023-01-19T06:13:18;-3.80;18.50
336;DHT22;156;48.738;9.228;2023-01-19T06:15:47;-3.50;16.30
336;DHT22;156;48.738;9.228;2023-01-19T06:18:16;-3.30;19.70
336;DHT22;156;48.738;9.228;2023-01-19T06:20:44;-0.80;16.50
336;DHT22;156;48.738;9.228;2023-01-19T06:23:12;-1.00;14.80
336;DHT22;156;48.738;9.228;2023-01-19T06:25:40;-3.40;11.20
336;DHT22;156;48.738;9.228;2023-01-19T06:28:15;-3.70;11.70
336;DHT22;156;48.738;9.228;2023-01-19T06:30:50;-4.60;9.30
336;DHT22;156;48.738;9.228;2023-01-19T06:33:19;-2.10;15.00
336;DHT22;156;48.738;9.228;2023-01-19T06:35:51;0.00;19.00
336;DHT22;156;48.738;9.228;2023-01-19T06:38:22;0.30;15.40
336;DHT22;156;48.738;9.228;2023-01-19T06:40:56;-2.40;7.90
336;DHT22;156;48.738;9.228;2023-01-19T06:44:11;-4.10;5.50
336;DHT22;156;48.738;9.228;2023-01-19T06:50:54;-3.40;1.00
336;DHT22;156;48.738;9.228;2023-01-19T06:53:54;-3.50;1.00
336;DHT22;156;48.738;9.228;2023-01-19T06:56:47;-3.60;1.00
336;DHT22;156;48.738;9.228;2023-01-19T06:59:34;-2.70;1.00
336;DHT22;156;48.738;9.228;2023-01-19T07:02:19;0.60;1.00
336;DHT22;156;48.738;9.228;2023-01-19T07:08:21;-3.10;1.00
336;DHT22;156;48.738;9.228;2023-01-19T07:11:15;0.80;1.00
336;DHT22;156;48.738;9.228;2023-01-19T07:14:32;-3.30;1.00
336;DHT22;156;48.738;9.228;2023-01-19T07:17:55;-1.30;1.00
336;DHT22;156;48.738;9.228;2023-01-19T07:20:29;-3.10;1.00
336;DHT22;156;48.738;9.228;2023-01-19T07:26:11;-2.70;1.00
336;DHT22;156;48.738;9.228;2023-01-19T07:28:48;-4.10;1.00
336;DHT22;156;48.738;9.228;2023-01-19T07:31:39;-0.40;1.00
336;DHT22;156;48.738;9.228;2023-01-19T07:45:48;-2.80;1.00
336;DHT22;156;48.738;9.228;2023-01-19T08:06:48;-3.20;1.00
336;DHT22;156;48.738;9.228;2023-01-19T08:13:14;-2.60;1.00
336;DHT22;156;48.738;9.228;2023-01-19T08:40:51;-2.50;1.00
336;DHT22;156;48.738;9.228;2023-01-19T08:43:32;-3.40;1.00
336;DHT22;156;48.738;9.228;2023-01-19T08:46:17;-1.20;1.00
336;DHT22;156;48.738;9.228;2023-01-19T08:48:53;-3.00;1.00
336;DHT22;156;48.738;9.228;2023-01-19T08:51:32;0.70;1.00
336;DHT22;156;48.738;9.228;2023-01-19T08:54:05;-2.40;1.00
336;DHT22;156;48.738;9.228;2023-01-19T08:56:51;-2.70;1.00
336;DHT22;156;48.738;9.228;2023-01-19T08:59:34;-2.00;1.00
336;DHT22;156;48.738;9.228;2023-01-19T09:02:08;-2.80;1.00
336;DHT22;156;48.738;9.228;2023-01-19T09:04:42;0.60;1.00
336;DHT22;156;48.738;9.228;2023-01-19T09:09:07;-2.80;1.00
336;DHT22;156;48.738;9.228;2023-01-19T09:10:55;-2.10;1.00
336;DHT22;156;48.738;9.228;2023-01-19T09:13:52;1.20;1.00
336;DHT22;156;48.738;9.228;2023-01-19T09:24:30;-1.70;1.00
336;DHT22;156;48.738;9.228;2023-01-19T09:31:14;-1.20;1.00
336;DHT22;156;48.738;9.228;2023-01-19T09:34:15;-1.90;1.00
336;DHT22;156;48.738;9.228;2023-01-19T09:37:07;-1.10;1.00
336;DHT22;156;48.738;9.228;2023-01-19T09:44:48;-0.70;1.00
336;DHT22;156;48.738;9.228;2023-01-19T09:46:41;-1.80;1.00
336;DHT22;156;48.738;9.228;2023-01-19T10:00:28;-0.30;1.00
336;DHT22;156;48.738;9.228;2023-01-19T10:14:35;-1.10;1.00
336;DHT22;156;48.738;9.228;2023-01-19T10:17:54;-0.50;1.00
336;DHT22;156;48.738;9.228;2023-01-19T10:20:54;-1.90;1.00
336;DHT22;156;48.738;9.228;2023-01-19T10:23:44;-0.40;1.00
336;DHT22;156;48.738;9.228;2023-01-19T10:27:56;1.80;1.00
336;DHT22;156;48.738;9.228;2023-01-19T10:30:34;0.70;1.00
336;DHT22;156;48.738;9.228;2023-01-19T10:34:43;-2.70;1.00
336;DHT22;156;48.738;9.228;2023-01-19T10:37:23;-1.60;1.00
336;DHT22;156;48.738;9.228;2023-01-19T10:43:42;-0.60;1.00
336;DHT22;156;48.738;9.228;2023-01-19T10:46:43;-0.50;1.00
336;DHT22;156;48.738;9.228;2023-01-19T10:49:37;0.90;1.00
336;DHT22;156;48.738;9.228;2023-01-19T10:52:30;2.00;1.00
336;DHT22;156;48.738;9.228;2023-01-19T10:55:10;2.80;1.00
336;DHT22;156;48.738;9.228;2023-01-19T10:58:31;-0.70;1.00
336;DHT22;156;48.738;9.228;2023-01-19T11:01:35;2.80;1.00
336;DHT22;156;48.738;9.228;2023-01-19T11:07:33;-0.60;1.00
336;DHT22;156;48.738;9.228;2023-01-19T11:10:26;-0.40;1.00
336;DHT22;156;48.738;9.228;2023-01-19T11:13:14;-0.30;1.00
336;DHT22;156;48.738;9.228;2023-01-19T11:16:11;0.70;1.00
336;DHT22;156;48.738;9.228;2023-01-19T11:19:15;-0.40;1.00
336;DHT22;156;48.738;9.228;2023-01-19T11:22:14;-0.40;1.00
336;DHT22;156;48.738;9.228;2023-01-19T11:25:18;-0.20;1.00
336;DHT22;156;48.738;9.228;2023-01-19T11:28:30;1.30;1.00
336;DHT22;156;48.738;9.228;2023-01-19T11:31:18;-0.30;1.00
336;DHT22;156;48.738;9.228;2023-01-19T11:34:19;-1.40;1.00
336;DHT22;156;48.738;9.228;2023-01-19T11:37:04;2.80;1.00
336;DHT22;156;48.738;9.228;2023-01-19T11:40:14;-0.30;1.00
336;DHT22;156;48.738;9.228;2023-01-19T11:43:09;1.40;1.00
336;DHT22;156;48.738;9.228;2023-01-19T11:45:51;0.00;1.00
336;DHT22;156;48.738;9.228;2023-01-19T11:48:45;-0.10;1.00
336;DHT22;156;48.738;9.228;2023-01-19T11:51:42;0.30;1.00
336;DHT22;156;48.738;9.228;2023-01-19T11:54:22;-0.60;1.00
336;DHT22;156;48.738;9.228;2023-01-19T11:56:58;1.90;1.00
336;DHT22;156;48.738;9.228;2023-01-19T11:59:29;-0.80;1.00
336;DHT22;156;48.738;9.228;2023-01-19T12:02:13;-0.30;1.00
336;DHT22;156;48.738;9.228;2023-01-19T12:05:29;3.60;1.00
336;DHT22;156;48.738;9.228;2023-01-19T12:08:32;0.90;1.00
336;DHT22;156;48.738;9.228;2023-01-19T12:15:02;0.20;1.00
336;DHT22;156;48.738;9.228;2023-01-19T12:17:43;-0.20;1.00
336;DHT22;156;48.738;9.228;2023-01-19T12:20:29;1.50;1.00
336;DHT22;156;48.738;9.228;2023-01-19T12:26:57;0.30;1.00
336;DHT22;156;48.738;9.228;2023-01-19T12:36:33;1.50;1.00
336;DHT22;156;48.738;9.228;2023-01-19T12:39:26;0.00;1.00
336;DHT22;156;48.738;9.228;2023-01-19T12:42:40;0.00;1.00
336;DHT22;156;48.738;9.228;2023-01-19T12:45:38;0.20;1.00
336;DHT22;156;48.738;9.228;2023-01-19T12:48:39;0.80;1.00
336;DHT22;156;48.738;9.228;2023-01-19T12:58:15;0.30;1.00
336;DHT22;156;48.738;9.228;2023-01-19T13:01:57;-0.60;1.00
336;DHT22;156;48.738;9.228;2023-01-19T13:04:45;-0.30;1.00
336;DHT22;156;48.738;9.228;2023-01-19T13:09:23;0.60;1.00
336;DHT22;156;48.738;9.228;2023-01-19T13:17:49;0.60;1.00
336;DHT22;156;48.738;9.228;2023-01-19T13:20:29;0.40;1.00
336;DHT22;156;48.738;9.228;2023-01-19T13:23:23;0.60;1.00
336;DHT22;156;48.738;9.228;2023-01-19T13:26:11;1.00;1.00
336;DHT22;156;48.738;9.228;2023-01-19T13:28:46;0.60;1.00
336;DHT22;156;48.738;9.228;2023-01-19T13:34:35;1.40;1.00
336;DHT22;156;48.738;9.228;2023-01-19T13:37:24;0.80;1.00
336;DHT22;156;48.738;9.228;2023-01-19T13:40:15;3.10;1.00
336;DHT22;156;48.738;9.228;2023-01-19T13:42:59;1.10;1.00
336;DHT22;156;48.738;9.228;2023-01-19T13:45:35;0.10;1.00
336;DHT22;156;48.738;9.228;2023-01-19T13:48:22;1.10;1.00
336;DHT22;156;48.738;9.228;2023-01-19T13:51:04;0.80;1.00
336;DHT22;156;48.738;9.228;2023-01-19T13:53:52;2.00;1.00
336;DHT22;156;48.738;9.228;2023-01-19T13:57:38;0.80;1.00
336;DHT22;156;48.738;9.228;2023-01-19T13:59:59;3.10;1.00
336;DHT22;156;48.738;9.228;2023-01-19T14:03:12;0.80;1.00
336;DHT22;156;48.738;9.228;2023-01-19T14:06:29;0.80;1.00
336;DHT22;156;48.738;9.228;2023-01-19T14:09:33;0.80;1.00
336;DHT22;156;48.738;9.228;2023-01-19T14:19:57;2.00;1.00
336;DHT22;156;48.738;9.228;2023-01-19T14:27:05;1.20;1.00
336;DHT22;156;48.738;9.228;2023-01-19T14:36:36;1.00;1.00
336;DHT22;156;48.738;9.228;2023-01-19T14:39:47;1.20;1.00
336;DHT22;156;48.738;9.228;2023-01-19T14:42:53;0.90;1.00
336;DHT22;156;48.738;9.228;2023-01-19T14:56:11;1.10;1.00
336;DHT22;156;48.738;9.228;2023-01-19T14:59:03;1.20;1.00
336;DHT22;156;48.738;9.228;2023-01-19T15:05:13;1.10;1.00
336;DHT22;156;48.738;9.228;2023-01-19T15:08:26;1.50;1.00
336;DHT22;156;48.738;9.228;2023-01-19T15:11:15;1.10;1.00
336;DHT22;156;48.738;9.228;2023-01-19T15:13:47;2.60;1.00
336;DHT22;156;48.738;9.228;2023-01-19T15:20:34;-0.40;1.00
336;DHT22;156;48.738;9.228;2023-01-19T15:26:12;0.40;1.00
336;DHT22;156;48.738;9.228;2023-01-19T15:28:57;0.90;1.00
336;DHT22;156;48.738;9.228;2023-01-19T15:31:51;1.90;1.00
336;DHT22;156;48.738;9.228;2023-01-19T15:34:30;0.90;1.00
336;DHT22;156;48.738;9.228;2023-01-19T15:36:57;0.60;1.00
336;DHT22;156;48.738;9.228;2023-01-19T15:39:24;0.60;1.00
336;DHT22;156;48.738;9.228;2023-01-19T15:41:53;0.60;1.00
336;DHT22;156;48.738;9.228;2023-01-19T15:44:20;0.70;1.00
336;DHT22;156;48.738;9.228;2023-01-19T15:46:46;0.80;1.00
336;DHT22;156;48.738;9.228;2023-01-19T15:49:13;0.90;1.00
336;DHT22;156;48.738;9.228;2023-01-19T15:51:40;1.10;1.00
336;DHT22;156;48.738;9.228;2023-01-19T15:54:09;0.90;1.00
336;DHT22;156;48.738;9.228;2023-01-19T15:56:39;1.00;1.00
336;DHT22;156;48.738;9.228;2023-01-19T15:59:08;1.00;1.00
336;DHT22;156;48.738;9.228;2023-01-19T16:01:35;1.00;1.00
336;DHT22;156;48.738;9.228;2023-01-19T16:04:04;1.00;1.00
336;DHT22;156;48.738;9.228;2023-01-19T16:06:32;1.00;1.00
336;DHT22;156;48.738;9.228;2023-01-19T16:08:59;1.00;1.00
336;DHT22;156;48.738;9.228;2023-01-19T16:11:26;1.10;1.00
336;DHT22;156;48.738;9.228;2023-01-19T16:13:54;1.10;1.00
336;DHT22;156;48.738;9.228;2023-01-19T16:16:23;1.10;1.00
336;DHT22;156;48.738;9.228;2023-01-19T16:18:51;1.10;1.00
336;DHT22;156;48.738;9.228;2023-01-19T16:21:18;1.10;1.00
336;DHT22;156;48.738;9.228;2023-01-19T16:23:45;1.10;1.00
336;DHT22;156;48.738;9.228;2023-01-19T16:26:27;1.00;1.00
336;DHT22;156;48.738;9.228;2023-01-19T16:28:58;1.00;1.00
336;DHT22;156;48.738;9.228;2023-01-19T16:31:28;0.90;1.00
336;DHT22;156;48.738;9.228;2023-01-19T16:33:55;0.80;1.00
336;DHT22;156;48.738;9.228;2023-01-19T16:36:26;0.80;1.00
336;DHT22;156;48.738;9.228;2023-01-19T16:38:57;0.70;1.00
336;DHT22;156;48.738;9.228;2023-01-19T16:41:24;0.60;1.00
336;DHT22;156;48.738;9.228;2023-01-19T16:43:51;0.60;1.00
336;DHT22;156;48.738;9.228;2023-01-19T16:46:20;0.60;1.00
336;DHT22;156;48.738;9.228;2023-01-19T16:48:50;0.50;1.00
336;DHT22;156;48.738;9.228;2023-01-19T16:51:17;0.40;1.00
336;DHT22;156;48.738;9.228;2023-01-19T16:53:44;0.40;1.00
336;DHT22;156;48.738;9.228;2023-01-19T16:56:13;0.40;1.00
336;DHT22;156;48.738;9.228;2023-01-19T16:58:40;0.50;1.00
336;DHT22;156;48.738;9.228;2023-01-19T17:01:08;0.50;1.00
336;DHT22;156;48.738;9.228;2023-01-19T17:03:35;0.50;1.00
336;DHT22;156;48.738;9.228;2023-01-19T17:06:05;0.60;1.00
336;DHT22;156;48.738;9.228;2023-01-19T17:08:32;0.60;1.00
336;DHT22;156;48.738;9.228;2023-01-19T17:10:59;0.60;1.00
336;DHT22;156;48.738;9.228;2023-01-19T17:13:28;0.60;1.00
336;DHT22;156;48.738;9.228;2023-01-19T17:15:58;0.60;1.00
336;DHT22;156;48.738;9.228;2023-01-19T17:18:26;0.60;1.00
336;DHT22;156;48.738;9.228;2023-01-19T17:20:53;0.60;1.00
336;DHT22;156;48.738;9.228;2023-01-19T17:23:21;0.70;1.00
336;DHT22;156;48.738;9.228;2023-01-19T17:25:51;0.80;1.00
336;DHT22;156;48.738;9.228;2023-01-19T17:28:18;0.90;1.00
336;DHT22;156;48.738;9.228;2023-01-19T17:30:45;0.90;1.00
336;DHT22;156;48.738;9.228;2023-01-19T17:33:13;0.90;1.00
336;DHT22;156;48.738;9.228;2023-01-19T17:35:40;0.90;1.00
336;DHT22;156;48.738;9.228;2023-01-19T17:38:07;0.90;1.00
336;DHT22;156;48.738;9.228;2023-01-19T17:40:36;0.90;1.00
336;DHT22;156;48.738;9.228;2023-01-19T17:43:03;0.90;1.00
336;DHT22;156;48.738;9.228;2023-01-19T17:45:30;0.90;1.00
336;DHT22;156;48.738;9.228;2023-01-19T17:47:57;0.90;1.00
336;DHT22;156;48.738;9.228;2023-01-19T17:50:23;0.80;1.00
336;DHT22;156;48.738;9.228;2023-01-19T17:52:50;0.70;1.00
336;DHT22;156;48.738;9.228;2023-01-19T17:55:17;0.60;1.00
336;DHT22;156;48.738;9.228;2023-01-19T17:57:45;0.60;1.00
336;DHT22;156;48.738;9.228;2023-01-19T18:00:13;0.50;1.00
336;DHT22;156;48.738;9.228;2023-01-19T18:02:40;0.50;1.00
336;DHT22;156;48.738;9.228;2023-01-19T18:05:08;0.60;1.00
336;DHT22;156;48.738;9.228;2023-01-19T18:07:37;0.70;1.00
336;DHT22;156;48.738;9.228;2023-01-19T18:10:19;0.80;1.00
336;DHT22;156;48.738;9.228;2023-01-19T18:12:47;0.80;1.00
336;DHT22;156;48.738;9.228;2023-01-19T18:15:14;0.80;1.00
336;DHT22;156;48.738;9.228;2023-01-19T18:17:41;0.90;1.00
336;DHT22;156;48.738;9.228;2023-01-19T18:20:09;0.90;1.00
336;DHT22;156;48.738;9.228;2023-01-19T18:22:36;0.90;1.00
336;DHT22;156;48.738;9.228;2023-01-19T18:25:04;1.00;1.00
336;DHT22;156;48.738;9.228;2023-01-19T18:27:30;1.00;1.00
336;DHT22;156;48.738;9.228;2023-01-19T18:29:59;1.10;1.00
336;DHT22;156;48.738;9.228;2023-01-19T18:32:25;1.10;1.00
336;DHT22;156;48.738;9.228;2023-01-19T18:34:52;1.10;1.00
336;DHT22;156;48.738;9.228;2023-01-19T18:37:19;1.00;1.00
336;DHT22;156;48.738;9.228;2023-01-19T18:39:46;1.00;1.00
336;DHT22;156;48.738;9.228;2023-01-19T18:42:13;1.00;1.00
336;DHT22;156;48.738;9.228;2023-01-19T18:44:40;0.90;1.00
336;DHT22;156;48.738;9.228;2023-01-19T18:47:08;0.80;1.00
336;DHT22;156;48.738;9.228;2023-01-19T18:49:35;0.80;1.00
336;DHT22;156;48.738;9.228;2023-01-19T18:52:02;0.80;1.00
336;DHT22;156;48.738;9.228;2023-01-19T18:54:29;0.80;1.00
336;DHT22;156;48.738;9.228;2023-01-19T18:56:56;0.80;1.00
336;DHT22;156;48.738;9.228;2023-01-19T18:59:23;0.80;1.00
336;DHT22;156;48.738;9.228;2023-01-19T19:01:50;0.80;1.00
336;DHT22;156;48.738;9.228;2023-01-19T19:04:20;0.80;1.00
336;DHT22;156;48.738;9.228;2023-01-19T19:06:47;0.90;1.00
336;DHT22;156;48.738;9.228;2023-01-19T19:09:14;0.90;1.00
336;DHT22;156;48.738;9.228;2023-01-19T19:11:41;0.90;1.00
336;DHT22;156;48.738;9.228;2023-01-19T19:14:08;1.00;1.00
336;DHT22;156;48.738;9.228;2023-01-19T19:16:35;1.00;1.00
336;DHT22;156;48.738;9.228;2023-01-19T19:19:02;1.00;1.00
336;DHT22;156;48.738;9.228;2023-01-19T19:21:30;1.00;1.00
336;DHT22;156;48.738;9.228;2023-01-19T19:23:57;1.20;1.00
336;DHT22;156;48.738;9.228;2023-01-19T19:26:25;1.00;1.00
336;DHT22;156;48.738;9.228;2023-01-19T19:28:52;0.90;1.00
336;DHT22;156;48.738;9.228;2023-01-19T19:31:20;0.80;1.00
336;DHT22;156;48.738;9.228;2023-01-19T19:33:48;0.80;1.00
336;DHT22;156;48.738;9.228;2023-01-19T19:36:15;0.80;1.00
336;DHT22;156;48.738;9.228;2023-01-19T19:38:43;0.70;1.00
336;DHT22;156;48.738;9.228;2023-01-19T19:41:13;0.70;1.00
336;DHT22;156;48.738;9.228;2023-01-19T19:43:40;0.60;1.00
336;DHT22;156;48.738;9.228;2023-01-19T19:46:10;0.60;1.00
336;DHT22;156;48.738;9.228;2023-01-19T19:48:37;0.60;1.00
336;DHT22;156;48.738;9.228;2023-01-19T19:51:07;0.50;1.00
336;DHT22;156;48.738;9.228;2023-01-19T19:53:34;0.50;1.00
336;DHT22;156;48.738;9.228;2023-01-19T19:56:04;0.50;1.00
336;DHT22;156;48.738;9.228;2023-01-19T19:58:31;0.50;1.00
336;DHT22;156;48.738;9.228;2023-01-19T20:00:58;0.50;1.00
336;DHT22;156;48.738;9.228;2023-01-19T20:03:28;0.50;1.00
336;DHT22;156;48.738;9.228;2023-01-19T20:05:55;0.50;1.00
336;DHT22;156;48.738;9.228;2023-01-19T20:08:22;0.50;1.00
336;DHT22;156;48.738;9.228;2023-01-19T20:10:49;0.40;1.00
336;DHT22;156;48.738;9.228;2023-01-19T20:13:17;0.40;1.00
336;DHT22;156;48.738;9.228;2023-01-19T20:15:45;0.40;1.00
336;DHT22;156;48.738;9.228;2023-01-19T20:18:12;0.40;1.00
336;DHT22;156;48.738;9.228;2023-01-19T20:20:39;0.40;1.00
336;DHT22;156;48.738;9.228;2023-01-19T20:23:05;0.40;1.00
336;DHT22;156;48.738;9.228;2023-01-19T20:25:37;0.30;1.00
336;DHT22;156;48.738;9.228;2023-01-19T20:28:04;0.20;1.00
336;DHT22;156;48.738;9.228;2023-01-19T20:30:32;0.20;1.00
336;DHT22;156;48.738;9.228;2023-01-19T20:32:59;0.20;1.00
336;DHT22;156;48.738;9.228;2023-01-19T20:35:26;0.30;1.00
336;DHT22;156;48.738;9.228;2023-01-19T20:37:53;0.20;1.00
336;DHT22;156;48.738;9.228;2023-01-19T20:40:20;0.20;1.00
336;DHT22;156;48.738;9.228;2023-01-19T20:42:47;0.10;1.00
336;DHT22;156;48.738;9.228;2023-01-19T20:45:14;0.20;1.00
336;DHT22;156;48.738;9.228;2023-01-19T20:47:42;0.20;1.00
336;DHT22;156;48.738;9.228;2023-01-19T20:50:10;0.30;1.00
336;DHT22;156;48.738;9.228;2023-01-19T20:52:37;0.30;1.00
336;DHT22;156;48.738;9.228;2023-01-19T20:55:05;0.30;1.00
336;DHT22;156;48.738;9.228;2023-01-19T20:57:33;0.40;1.00
336;DHT22;156;48.738;9.228;2023-01-19T21:00:00;0.50;1.00
336;DHT22;156;48.738;9.228;2023-01-19T21:02:27;0.50;1.00
336;DHT22;156;48.738;9.228;2023-01-19T21:04:55;0.70;1.00
336;DHT22;156;48.738;9.228;2023-01-19T21:07:22;0.70;1.00
336;DHT22;156;48.738;9.228;2023-01-19T21:09:49;0.80;1.00
336;DHT22;156;48.738;9.228;2023-01-19T21:12:15;0.80;1.00
336;DHT22;156;48.738;9.228;2023-01-19T21:14:44;0.90;1.00
336;DHT22;156;48.738;9.228;2023-01-19T21:17:11;0.90;1.00
336;DHT22;156;48.738;9.228;2023-01-19T21:19:38;0.80;1.00
336;DHT22;156;48.738;9.228;2023-01-19T21:22:06;0.80;1.00